Time;durP1;ratioP1;P1;durP2;ratioP2;P2;SDS_P1;SDS_P2;PMS_P1;PMS_P2;Temp;Humidity;BMP_temperature;BMP_pressure;BME280_temperature;BME280_humidity;BME280_pressure;Samples;Min_cycle;Max_cycle;Signal;HPM_P1;HPM_P2
2022/11/17 00:01:20;;;;;;;5.68;4.57;;;12.80;99.90;;;;;;5034736;28;20117;-67
2022/11/17 00:03:48;;;;;;;8.95;5.65;;;12.80;99.90;;;;;;5034756;28;20116;-67
2022/11/17 00:06:14;;;;;;;8.40;5.70;;;12.80;99.80;;;;;;5034668;28;20463;-67
2022/11/17 00:08:40;;;;;;;9.90;5.30;;;12.80;99.80;;;;;;5034802;28;20040;-67
2022/11/17 00:11:06;;;;;;;8.05;5.13;;;12.80;99.70;;;;;;5034411;28;20399;-68
2022/11/17 00:16:18;;;;;;;8.52;5.45;;;12.70;99.60;;;;;;5034677;28;20451;-70
2022/11/17 00:21:29;;;;;;;8.65;4.80;;;12.70;99.50;;;;;;5034877;28;20044;-70
2022/11/17 00:23:55;;;;;;;8.50;4.50;;;12.60;99.50;;;;;;5033962;28;20038;-70
2022/11/17 00:26:23;;;;;;;11.77;5.30;;;12.60;99.20;;;;;;5034273;28;20041;-67
2022/11/17 00:28:53;;;;;;;8.25;5.25;;;12.60;99.20;;;;;;5034561;28;20031;-70
2022/11/17 00:34:06;;;;;;;9.90;5.40;;;12.50;99.10;;;;;;5034307;28;20048;-69
2022/11/17 00:36:42;;;;;;;12.20;5.03;;;12.50;99.10;;;;;;5033935;28;20038;-70
2022/11/17 00:39:09;;;;;;;19.17;7.00;;;12.50;99.10;;;;;;5034030;28;20450;-70
2022/11/17 00:41:35;;;;;;;204.05;11.65;;;12.50;99.20;;;;;;5033994;28;20364;-70
2022/11/17 00:44:01;;;;;;;277.63;13.93;;;12.40;99.30;;;;;;5034216;28;20041;-70
2022/11/17 00:46:26;;;;;;;123.32;10.50;;;12.40;99.60;;;;;;5033991;28;20105;-67
2022/11/17 00:48:52;;;;;;;113.18;10.25;;;12.40;99.60;;;;;;5032366;28;20121;-68
2022/11/17 00:51:18;;;;;;;159.18;12.90;;;12.40;99.60;;;;;;5033714;28;20033;-67
2022/11/17 00:53:44;;;;;;;149.57;12.85;;;12.40;99.60;;;;;;5033849;28;20464;-70
2022/11/17 00:56:10;;;;;;;160.07;12.63;;;12.30;99.60;;;;;;5033936;28;20057;-67
2022/11/17 00:58:36;;;;;;;108.38;12.07;;;12.30;99.90;;;;;;5033808;28;20072;-67
2022/11/17 01:01:03;;;;;;;67.07;10.70;;;12.30;99.90;;;;;;5033479;28;20112;-68
2022/11/17 01:03:28;;;;;;;77.40;11.57;;;12.30;99.90;;;;;;5033712;28;20033;-67
2022/11/17 01:39:35;;;;;;;8.57;6.95;;;12.10;99.20;;;;;;3606246;28;20131;-68
2022/11/17 01:42:04;;;;;;;8.65;6.10;;;12.10;99.10;;;;;;5031778;28;20037;-67
2022/11/17 01:44:52;;;;;;;28.98;6.00;;;12.10;99.30;;;;;;5033090;28;20025;-67
2022/11/17 01:47:34;;;;;;;16.30;5.60;;;12.10;99.10;;;;;;5004784;28;20125;-70
2022/11/17 01:50:17;;;;;;;5.65;5.00;;;12.00;99.00;;;;;;5033025;28;20033;-70
2022/11/17 01:52:43;;;;;;;6.47;5.40;;;12.00;99.10;;;;;;5032193;28;20177;-70
2022/11/17 01:55:10;;;;;;;5.65;4.90;;;12.00;99.10;;;;;;5032793;28;20470;-70
2022/11/17 01:57:59;;;;;;;4.78;4.30;;;11.90;99.10;;;;;;5032007;28;20029;-70
2022/11/17 02:00:25;;;;;;;5.90;4.85;;;11.90;98.90;;;;;;5030144;28;20112;-70
2022/11/17 02:02:52;;;;;;;6.72;5.00;;;11.90;98.80;;;;;;5030069;28;20037;-70
2022/11/17 02:05:29;;;;;;;23.90;5.40;;;11.90;98.80;;;;;;5031647;28;20033;-70
2022/11/17 02:07:58;;;;;;;38.08;6.43;;;11.90;98.90;;;;;;5032968;28;20120;-70
2022/11/17 02:10:24;;;;;;;38.08;6.25;;;11.80;98.90;;;;;;5032536;28;20079;-70
2022/11/17 02:12:52;;;;;;;22.77;5.60;;;11.80;99.00;;;;;;5032507;28;20052;-70
2022/11/17 02:15:17;;;;;;;67.82;6.30;;;11.80;99.20;;;;;;5032422;28;20187;-70
2022/11/17 02:17:43;;;;;;;56.28;5.75;;;11.80;99.30;;;;;;5032463;28;20100;-70
2022/11/17 02:20:31;;;;;;;62.22;5.55;;;11.80;99.50;;;;;;5032475;28;20038;-70
2022/11/17 02:23:39;;;;;;;64.45;5.20;;;11.80;99.60;;;;;;5001752;28;20045;-70
2022/11/17 02:26:38;;;;;;;56.20;5.18;;;11.80;99.70;;;;;;5032449;28;20399;-70
2022/11/17 02:29:31;;;;;;;88.30;6.45;;;11.80;99.60;;;;;;5032266;28;20033;-70
2022/11/17 02:32:08;;;;;;;68.55;6.13;;;11.80;99.40;;;;;;5032687;28;20034;-67
2022/11/17 02:34:44;;;;;;;66.72;6.18;;;11.80;99.40;;;;;;5032530;28;20084;-69
2022/11/17 02:37:19;;;;;;;67.63;6.35;;;11.70;99.40;;;;;;5032304;28;20132;-67
2022/11/17 02:39:57;;;;;;;36.22;5.20;;;11.70;99.50;;;;;;5032268;28;20053;-69
2022/11/17 02:45:18;;;;;;;;;;;11.70;99.50;;;;;;5033382;28;20108;-69
2022/11/17 02:47:48;;;;;;;8.98;4.88;;;11.70;99.40;;;;;;5032338;28;19909;-70
2022/11/17 02:50:16;;;;;;;68.88;5.32;;;11.70;99.30;;;;;;5032277;28;20128;-69
2022/11/17 02:52:41;;;;;;;219.98;8.40;;;11.70;99.30;;;;;;5032128;28;20030;-69
2022/11/17 02:55:09;;;;;;;137.68;7.15;;;11.70;99.30;;;;;;5032211;28;20052;-69
2022/11/17 02:57:37;;;;;;;172.73;6.60;;;11.60;99.30;;;;;;5032323;28;20034;-69
2022/11/17 03:00:15;;;;;;;100.07;5.20;;;11.60;99.30;;;;;;5031985;28;20091;-69
2022/11/17 03:03:02;;;;;;;88.85;5.18;;;11.60;99.30;;;;;;5030930;28;20061;-69
2022/11/17 03:05:55;;;;;;;99.30;4.55;;;11.60;99.30;;;;;;5035908;28;20029;-69
2022/11/17 03:08:21;;;;;;;;;;;11.60;99.10;;;;;;5036169;28;20044;-69
2022/11/17 03:10:55;;;;;;;42.67;3.40;;;11.50;98.90;;;;;;5035888;28;20351;-69
2022/11/17 03:13:42;;;;;;;40.67;4.32;;;11.50;98.90;;;;;;5035292;28;20065;-69
2022/11/17 03:16:22;;;;;;;21.30;3.80;;;11.50;98.80;;;;;;5035645;28;20045;-69
2022/11/17 03:19:00;;;;;;;45.55;4.22;;;11.40;98.60;;;;;;5035715;28;20037;-69
2022/11/17 03:21:31;;;;;;;5.57;3.50;;;11.40;98.60;;;;;;5035694;28;20040;-69
2022/11/17 03:24:04;;;;;;;3.90;3.50;;;11.40;98.60;;;;;;5035563;28;20033;-69
2022/11/17 03:26:32;;;;;;;;;;;11.40;98.50;;;;;;5036036;28;20496;-69
2022/11/17 03:29:00;;;;;;;7.53;3.25;;;11.40;98.40;;;;;;5035538;28;20374;-69
2022/11/17 03:31:27;;;;;;;5.50;3.33;;;11.30;98.30;;;;;;5035505;28;20029;-69
2022/11/17 03:33:54;;;;;;;4.50;3.55;;;11.30;98.30;;;;;;5035387;28;20415;-69
2022/11/17 03:36:33;;;;;;;3.22;2.92;;;11.30;98.30;;;;;;5035460;28;20049;-69
2022/11/17 03:39:25;;;;;;;3.72;3.30;;;11.30;98.60;;;;;;5035005;28;20036;-70
2022/11/17 03:41:57;;;;;;;4.28;3.50;;;11.30;98.30;;;;;;5027108;28;20048;-84
2022/11/17 03:44:25;;;;;;;3.17;2.87;;;11.20;98.20;;;;;;5035399;28;20060;-69
2022/11/17 03:46:54;;;;;;;3.35;3.03;;;11.20;98.10;;;;;;5035304;28;20257;-69
2022/11/17 03:49:36;;;;;;;3.58;3.28;;;11.20;98.20;;;;;;5035244;28;20036;-69
2022/11/17 03:52:02;;;;;;;5.30;2.97;;;11.20;98.30;;;;;;5034905;28;20038;-69
2022/11/17 03:54:28;;;;;;;3.63;3.30;;;11.20;98.10;;;;;;5035010;28;20136;-69
2022/11/17 03:56:59;;;;;;;7.85;3.42;;;11.10;97.90;;;;;;5035146;28;20104;-69
2022/11/17 03:59:42;;;;;;;49.10;4.47;;;11.10;98.10;;;;;;5035042;28;20037;-69
2022/11/17 04:02:12;;;;;;;47.95;4.38;;;11.10;98.20;;;;;;5034989;28;20511;-70
2022/11/17 04:07:22;;;;;;;69.03;4.53;;;11.10;98.40;;;;;;5034876;28;20388;-69
2022/11/17 04:09:47;;;;;;;50.35;3.72;;;11.10;98.40;;;;;;5034767;28;20045;-69
2022/11/17 04:17:41;;;;;;;35.72;3.40;;;11.00;98.30;;;;;;5034983;28;20048;-70
2022/11/17 04:20:07;;;;;;;23.80;3.45;;;11.00;98.30;;;;;;5034548;28;20041;-69
2022/11/17 04:22:33;;;;;;;22.85;2.78;;;11.00;98.10;;;;;;5034577;28;20072;-69
2022/11/17 04:24:58;;;;;;;2.47;2.25;;;11.00;98.10;;;;;;5034410;28;20069;-69
2022/11/17 04:30:09;;;;;;;12.70;2.67;;;10.90;98.10;;;;;;5034578;28;20048;-69
2022/11/17 04:32:35;;;;;;;2.75;2.30;;;10.90;98.00;;;;;;5034439;28;20057;-69
2022/11/17 04:35:00;;;;;;;6.80;2.40;;;10.90;98.00;;;;;;5034231;28;20072;-69
2022/11/17 04:37:26;;;;;;;2.40;2.20;;;10.80;98.00;;;;;;5034009;28;20065;-69
2022/11/17 04:39:52;;;;;;;2.13;1.92;;;10.80;98.00;;;;;;5034009;28;20145;-69
2022/11/17 04:42:17;;;;;;;2.55;2.35;;;10.80;98.10;;;;;;5034117;28;20029;-69
2022/11/17 04:44:43;;;;;;;2.60;2.40;;;10.80;98.20;;;;;;5034187;28;20095;-69
2022/11/17 04:47:08;;;;;;;2.42;2.22;;;10.80;98.20;;;;;;5034143;28;20163;-69
2022/11/17 04:49:34;;;;;;;3.05;2.50;;;10.80;98.30;;;;;;5034132;28;20084;-69
2022/11/17 04:52:00;;;;;;;3.13;2.55;;;10.80;98.30;;;;;;5034164;28;20032;-69
2022/11/17 04:54:26;;;;;;;4.53;3.00;;;10.80;98.40;;;;;;5033769;28;20038;-69
2022/11/17 04:56:53;;;;;;;4.15;2.70;;;10.80;98.30;;;;;;5033888;28;20168;-70
2022/11/17 04:59:19;;;;;;;8.07;3.05;;;10.80;98.30;;;;;;5033942;28;20030;-69
2022/11/17 05:01:45;;;;;;;4.88;3.05;;;10.80;98.50;;;;;;5033846;28;20029;-69
2022/11/17 05:04:13;;;;;;;4.40;3.38;;;10.80;98.60;;;;;;5033974;28;20109;-69
2022/11/17 05:06:41;;;;;;;4.72;2.72;;;10.80;98.70;;;;;;5033698;28;20026;-69
2022/11/17 05:09:15;;;;;;;3.85;3.00;;;10.80;98.70;;;;;;5033681;28;20044;-69
2022/11/17 05:14:27;;;;;;;3.45;3.10;;;10.80;98.70;;;;;;5033615;28;20120;-70
2022/11/17 05:17:26;;;;;;;4.05;2.95;;;10.80;98.70;;;;;;5033742;28;20041;-70
2022/11/17 05:19:46;;;;;;;3.40;2.92;;;10.80;98.60;;;;;;5031385;28;20135;-69
2022/11/17 05:25:04;;;;;;;4.07;3.00;;;10.90;98.60;;;;;;5033786;28;20099;-69
2022/11/17 05:27:30;;;;;;;3.92;3.00;;;10.80;98.50;;;;;;5032607;28;20037;-69
2022/11/17 05:29:56;;;;;;;5.75;2.72;;;10.80;98.50;;;;;;5033346;28;20513;-69
2022/11/17 05:32:22;;;;;;;3.75;2.85;;;10.80;98.60;;;;;;5032985;28;20029;-70
2022/11/17 05:34:47;;;;;;;5.53;3.05;;;10.80;98.60;;;;;;5033269;28;20049;-69
2022/11/17 05:37:13;;;;;;;6.50;2.92;;;10.80;98.60;;;;;;5033247;28;20057;-69
2022/11/17 05:39:38;;;;;;;3.33;2.80;;;10.80;98.60;;;;;;5032915;28;20052;-68
2022/11/17 05:42:04;;;;;;;7.40;3.20;;;10.80;98.70;;;;;;5033106;28;20037;-69
2022/11/17 05:44:30;;;;;;;4.68;2.97;;;10.80;98.70;;;;;;5033201;28;20103;-69
2022/11/17 05:46:55;;;;;;;4.30;2.80;;;10.90;98.90;;;;;;5033466;28;20029;-69
2022/11/17 05:49:21;;;;;;;6.35;2.55;;;10.80;98.90;;;;;;5033100;28;20095;-69
2022/11/17 05:51:47;;;;;;;6.28;3.17;;;10.90;99.00;;;;;;5033192;28;20045;-69
2022/11/17 05:54:12;;;;;;;3.25;2.90;;;10.90;99.10;;;;;;5033177;28;20048;-69
2022/11/17 05:56:44;;;;;;;6.20;2.65;;;10.90;99.20;;;;;;5032630;28;20040;-69
2022/11/17 05:59:31;;;;;;;4.20;2.45;;;10.90;99.20;;;;;;5032724;28;20034;-69
2022/11/17 06:02:08;;;;;;;4.78;2.88;;;10.90;99.20;;;;;;5032981;28;20034;-70
2022/11/17 06:04:34;;;;;;;5.13;2.55;;;10.90;99.20;;;;;;5032859;28;20045;-69
2022/11/17 06:07:01;;;;;;;5.47;2.90;;;10.90;99.20;;;;;;5032887;28;20044;-69
2022/11/17 06:09:30;;;;;;;3.75;2.65;;;11.00;99.30;;;;;;5032869;28;20036;-69
2022/11/17 06:11:55;;;;;;;3.60;2.85;;;10.90;99.40;;;;;;5032887;28;20033;-69
2022/11/17 06:14:21;;;;;;;3.90;3.00;;;11.00;99.50;;;;;;5032528;28;20042;-69
2022/11/17 06:16:55;;;;;;;4.47;2.75;;;11.00;99.50;;;;;;5032686;28;20040;-69
2022/11/17 06:19:27;;;;;;;4.38;2.80;;;11.00;99.50;;;;;;5032931;28;20393;-69
2022/11/17 06:21:53;;;;;;;3.60;2.65;;;11.00;99.50;;;;;;5032787;28;20496;-69
2022/11/17 06:24:19;;;;;;;3.28;2.53;;;11.00;99.60;;;;;;5032775;28;20064;-69
2022/11/17 06:26:45;;;;;;;4.75;2.55;;;11.00;99.70;;;;;;5032413;28;20080;-69
2022/11/17 06:29:13;;;;;;;3.67;2.47;;;11.10;99.80;;;;;;5032585;28;20045;-90
2022/11/17 06:31:42;;;;;;;3.45;2.70;;;11.10;99.90;;;;;;5032608;28;20108;-69
2022/11/17 06:34:08;;;;;;;6.10;2.92;;;11.10;99.90;;;;;;5032814;28;20484;-69
2022/11/17 06:36:34;;;;;;;7.38;3.08;;;11.10;99.80;;;;;;5032599;28;20032;-69
2022/11/17 06:38:59;;;;;;;3.72;2.53;;;11.10;99.80;;;;;;5034468;28;20539;-70
2022/11/17 06:41:25;;;;;;;4.43;3.30;;;11.10;99.90;;;;;;5036285;28;20030;-69
2022/11/17 06:43:51;;;;;;;4.53;2.97;;;11.10;99.90;;;;;;5036352;28;20088;-69
2022/11/17 06:46:17;;;;;;;2.60;2.40;;;11.10;99.90;;;;;;5036282;28;20099;-69
2022/11/17 06:48:43;;;;;;;13.77;4.03;;;11.10;99.80;;;;;;5036338;28;20046;-70
2022/11/17 06:51:09;;;;;;;6.95;2.70;;;11.10;99.80;;;;;;5035808;28;20033;-69
2022/11/17 06:53:35;;;;;;;3.88;2.75;;;11.20;99.90;;;;;;5035805;28;20111;-69
2022/11/17 06:56:05;;;;;;;4.50;3.40;;;11.20;99.90;;;;;;5036172;28;20392;-69
2022/11/17 06:58:31;;;;;;;5.43;3.38;;;11.20;99.90;;;;;;5035980;28;20064;-69
2022/11/17 07:01:08;;;;;;;6.03;3.70;;;11.20;99.90;;;;;;5035925;28;20041;-70
2022/11/17 07:03:35;;;;;;;5.55;3.35;;;11.20;99.90;;;;;;5035871;28;20548;-69
2022/11/17 07:20:09;;;;;;;6.25;3.67;;;11.30;99.90;;;;;;5070059;28;20390;-70
2022/11/17 07:22:36;;;;;;;5.07;3.97;;;11.70;99.90;;;;;;5070196;28;20378;-70
2022/11/17 07:25:03;;;;;;;4.13;3.50;;;11.70;99.90;;;;;;5070028;28;20033;-71
2022/11/17 07:27:29;;;;;;;6.30;4.07;;;11.70;99.90;;;;;;5069979;28;20033;-70
2022/11/17 07:29:56;;;;;;;6.40;4.10;;;11.70;99.90;;;;;;5069602;28;20036;-70
2022/11/17 07:32:21;;;;;;;12.52;4.10;;;11.80;99.90;;;;;;5069774;28;20095;-70
2022/11/17 07:34:47;;;;;;;5.75;4.03;;;11.70;99.90;;;;;;5069957;28;20116;-70
2022/11/17 07:37:13;;;;;;;5.38;3.72;;;11.70;99.90;;;;;;5069700;28;20032;-69
2022/11/17 07:39:39;;;;;;;8.90;3.63;;;11.80;99.90;;;;;;5069714;28;20033;-70
2022/11/17 07:42:05;;;;;;;10.30;4.40;;;11.80;99.90;;;;;;5067904;28;20033;-70
2022/11/17 07:44:31;;;;;;;4.88;3.67;;;11.80;99.90;;;;;;5068912;28;20017;-70
2022/11/17 07:46:57;;;;;;;11.07;5.18;;;11.80;99.90;;;;;;5069001;28;20036;-69
2022/11/17 07:49:22;;;;;;;8.57;4.63;;;11.80;99.90;;;;;;5068459;28;20104;-70
2022/11/17 07:51:48;;;;;;;10.23;4.63;;;11.80;99.90;;;;;;5068834;28;20034;-70
2022/11/17 07:54:14;;;;;;;6.38;3.47;;;11.80;99.90;;;;;;5069147;28;20439;-69
2022/11/17 07:56:39;;;;;;;5.72;3.92;;;11.80;99.90;;;;;;5069208;28;20024;-70
2022/11/17 07:59:05;;;;;;;8.00;4.07;;;11.80;99.90;;;;;;5068684;28;20024;-70
2022/11/17 08:01:31;;;;;;;6.82;4.55;;;11.80;99.90;;;;;;5068926;28;20035;-69
2022/11/17 08:03:57;;;;;;;5.35;4.53;;;11.80;99.90;;;;;;5068878;28;20024;-69
2022/11/17 08:06:23;;;;;;;6.80;4.60;;;11.80;99.90;;;;;;5069017;28;20025;-70
2022/11/17 08:08:50;;;;;;;6.60;4.03;;;11.80;99.90;;;;;;5068808;28;20067;-70
2022/11/17 08:11:16;;;;;;;8.45;3.90;;;11.90;99.90;;;;;;5068703;28;20025;-69
2022/11/17 08:13:42;;;;;;;5.47;3.92;;;11.90;99.90;;;;;;5068303;28;20110;-70
2022/11/17 08:16:09;;;;;;;9.30;4.03;;;11.90;99.90;;;;;;5068913;28;20029;-70
2022/11/17 08:18:37;;;;;;;5.25;4.05;;;11.90;99.90;;;;;;5068503;28;20053;-70
2022/11/17 08:21:05;;;;;;;7.88;4.22;;;11.90;99.90;;;;;;5055680;28;20028;-70
2022/11/17 08:23:31;;;;;;;8.93;4.30;;;11.90;99.90;;;;;;5055747;28;20112;-70
2022/11/17 08:25:56;;;;;;;6.47;4.07;;;11.90;99.90;;;;;;5055724;28;20021;-70
2022/11/17 08:28:22;;;;;;;7.45;3.70;;;12.00;99.90;;;;;;5055620;28;20402;-70
2022/11/17 08:30:48;;;;;;;6.90;3.58;;;12.00;99.90;;;;;;5055292;28;20021;-70
2022/11/17 08:33:13;;;;;;;4.95;3.35;;;12.10;99.90;;;;;;5055401;28;20389;-70
2022/11/17 08:35:39;;;;;;;5.25;3.58;;;12.10;99.90;;;;;;5055579;28;20078;-70
2022/11/17 08:38:05;;;;;;;5.35;3.17;;;12.10;99.90;;;;;;5055213;28;20025;-70
2022/11/17 08:40:31;;;;;;;5.93;3.58;;;12.10;99.80;;;;;;5055457;28;20025;-70
2022/11/17 08:42:58;;;;;;;3.90;3.33;;;12.20;99.80;;;;;;5055130;28;20382;-69
2022/11/17 08:45:24;;;;;;;7.10;3.45;;;12.20;99.60;;;;;;5055380;28;20024;-70
2022/11/17 08:47:50;;;;;;;4.88;3.78;;;12.20;99.50;;;;;;5054966;28;21213;-70
2022/11/17 08:50:17;;;;;;;6.20;4.00;;;12.20;99.50;;;;;;5054326;28;20021;-70
2022/11/17 08:52:46;;;;;;;4.93;4.00;;;12.20;99.40;;;;;;5054197;28;20371;-70
2022/11/17 08:55:12;;;;;;;4.45;3.92;;;12.20;99.50;;;;;;5054783;28;20418;-71
2022/11/17 08:57:38;;;;;;;6.55;4.07;;;12.30;99.50;;;;;;5054729;28;20021;-70
2022/11/17 09:00:05;;;;;;;6.47;4.70;;;12.30;99.40;;;;;;5054757;28;20430;-70
2022/11/17 09:02:31;;;;;;;7.25;4.88;;;12.30;99.40;;;;;;5054198;28;20029;-71
2022/11/17 09:04:56;;;;;;;6.63;3.83;;;12.30;99.50;;;;;;5054825;28;20032;-70
2022/11/17 09:07:22;;;;;;;10.48;4.63;;;12.30;99.40;;;;;;5055157;28;20032;-71
2022/11/17 09:09:48;;;;;;;15.07;4.68;;;12.30;99.40;;;;;;5053930;28;20421;-70
2022/11/17 09:12:14;;;;;;;15.77;5.38;;;12.30;99.30;;;;;;5053945;28;20048;-71
2022/11/17 09:14:40;;;;;;;10.15;6.05;;;12.30;99.20;;;;;;5054756;28;20108;-72
2022/11/17 09:17:06;;;;;;;8.48;5.05;;;12.30;99.20;;;;;;5054620;28;20431;-70
2022/11/17 09:19:32;;;;;;;14.40;5.03;;;12.30;99.20;;;;;;5054561;28;20106;-70
2022/11/17 09:21:58;;;;;;;10.82;5.60;;;12.40;99.10;;;;;;5054626;28;20483;-71
2022/11/17 09:24:25;;;;;;;10.35;5.25;;;12.40;99.10;;;;;;5054804;28;20119;-70
2022/11/17 09:26:53;;;;;;;7.88;4.90;;;12.40;99.20;;;;;;5054303;28;20021;-70
2022/11/17 09:29:19;;;;;;;7.07;4.72;;;12.40;99.10;;;;;;5054293;28;20029;-70
2022/11/17 09:31:45;;;;;;;7.88;4.57;;;12.40;99.10;;;;;;5053318;28;20025;-71
2022/11/17 09:34:10;;;;;;;7.85;5.00;;;12.40;99.10;;;;;;5054339;28;20063;-70
2022/11/17 09:36:36;;;;;;;6.15;4.72;;;12.50;99.00;;;;;;5054302;28;20021;-71
2022/11/17 09:39:02;;;;;;;9.15;4.65;;;12.50;99.00;;;;;;5054328;28;20494;-70
2022/11/17 09:41:43;;;;;;;6.32;4.22;;;12.50;99.00;;;;;;5054252;28;20021;-71
2022/11/17 09:44:28;;;;;;;6.10;4.13;;;12.50;99.00;;;;;;5054102;28;20040;-70
2022/11/17 09:47:12;;;;;;;6.60;4.10;;;12.50;99.00;;;;;;5054128;28;20024;-71
2022/11/17 09:50:03;;;;;;;7.88;5.35;;;12.60;99.00;;;;;;5053516;28;20029;-71
2022/11/17 09:52:54;;;;;;;7.45;5.25;;;12.60;99.00;;;;;;5052972;28;20427;-70
2022/11/17 09:55:20;;;;;;;8.07;4.10;;;12.60;99.10;;;;;;5042592;28;20041;-70
2022/11/17 09:57:50;;;;;;;9.45;4.60;;;12.70;99.00;;;;;;5053887;28;20078;-70
2022/11/17 10:00:18;;;;;;;7.90;4.22;;;12.70;99.00;;;;;;5054052;28;20025;-70
2022/11/17 10:02:44;;;;;;;7.30;4.57;;;12.70;98.90;;;;;;5053727;28;20124;-72
2022/11/17 10:05:30;;;;;;;6.03;4.50;;;12.70;98.90;;;;;;5054009;28;20017;-71
2022/11/17 10:08:02;;;;;;;6.55;4.55;;;12.70;98.90;;;;;;5053585;28;20076;-71
2022/11/17 10:10:51;;;;;;;11.25;4.40;;;12.70;98.90;;;;;;5053715;28;20032;-70
2022/11/17 10:13:28;;;;;;;10.70;4.45;;;12.80;98.80;;;;;;5050353;28;20491;-70
2022/11/17 10:16:02;;;;;;;5.90;4.63;;;12.80;98.80;;;;;;5053609;28;20070;-71
2022/11/17 10:18:33;;;;;;;7.60;4.63;;;12.80;98.70;;;;;;5053315;28;20511;-70
2022/11/17 10:20:58;;;;;;;10.82;4.78;;;12.80;98.70;;;;;;5053595;28;20056;-71
2022/11/17 10:23:31;;;;;;;6.75;4.72;;;12.80;98.60;;;;;;5053650;28;20471;-71
2022/11/17 10:25:57;;;;;;;;;;;12.80;98.60;;;;;;5053969;28;20052;-71
2022/11/17 10:28:29;;;;;;;10.00;5.22;;;12.80;98.60;;;;;;5053584;28;19913;-70
2022/11/17 10:31:01;;;;;;;6.82;5.10;;;12.80;98.60;;;;;;5053608;28;20090;-71
2022/11/17 10:33:48;;;;;;;8.32;4.95;;;12.80;98.60;;;;;;5053508;28;20025;-70
2022/11/17 10:36:16;;;;;;;8.57;4.97;;;12.80;98.70;;;;;;5052938;28;20497;-71
2022/11/17 10:38:56;;;;;;;8.95;5.10;;;12.80;98.80;;;;;;5053103;28;20064;-70
2022/11/17 10:41:29;;;;;;;12.13;6.40;;;12.90;98.90;;;;;;5053049;28;20028;-71
2022/11/17 10:44:05;;;;;;;10.15;5.72;;;12.90;98.90;;;;;;5051741;28;20037;-70
2022/11/17 10:46:31;;;;;;;11.77;5.57;;;12.90;98.80;;;;;;5053141;28;20178;-71
2022/11/17 10:48:59;;;;;;;9.35;5.97;;;13.00;98.80;;;;;;5053176;28;20092;-71
2022/11/17 10:51:27;;;;;;;8.80;5.07;;;13.00;98.80;;;;;;5053050;28;20078;-71
2022/11/17 10:54:18;;;;;;;8.23;6.10;;;13.00;98.70;;;;;;5052885;28;20029;-70
2022/11/17 10:56:53;;;;;;;10.40;6.07;;;13.10;98.70;;;;;;5053059;28;20055;-70
2022/11/17 10:59:41;;;;;;;10.77;6.30;;;13.10;98.80;;;;;;5053002;28;20033;-71
2022/11/17 11:02:28;;;;;;;9.43;6.07;;;13.00;98.80;;;;;;5052885;28;20527;-71
2022/11/17 11:05:18;;;;;;;8.68;5.35;;;13.10;98.80;;;;;;5053135;28;20021;-71
2022/11/17 11:07:44;;;;;;;14.63;7.32;;;13.10;98.90;;;;;;5053096;28;20025;-71
2022/11/17 11:10:22;;;;;;;8.50;6.00;;;13.10;98.80;;;;;;5052776;28;20036;-70
2022/11/17 11:13:11;;;;;;;9.25;5.47;;;13.10;98.80;;;;;;5053183;28;20490;-70
2022/11/17 11:15:38;;;;;;;16.52;5.95;;;13.10;98.80;;;;;;5052453;28;20124;-71
2022/11/17 11:18:17;;;;;;;10.45;5.78;;;13.10;98.80;;;;;;5052820;28;20506;-70
2022/11/17 11:20:48;;;;;;;11.00;6.20;;;13.10;98.80;;;;;;5052691;28;20052;-71
2022/11/17 11:24:01;;;;;;;11.23;6.25;;;13.10;98.70;;;;;;5052913;28;20036;-71
2022/11/17 11:27:05;;;;;;;7.70;5.40;;;13.10;98.70;;;;;;5052547;28;20036;-71
2022/11/17 11:30:03;;;;;;;7.13;5.38;;;13.10;98.70;;;;;;5030626;28;20037;-70
2022/11/17 11:32:43;;;;;;;9.93;5.35;;;13.10;98.70;;;;;;5030599;28;20064;-71
2022/11/17 11:35:43;;;;;;;12.45;5.45;;;13.10;98.60;;;;;;5048042;28;20499;-71
2022/11/17 11:38:21;;;;;;;10.48;5.47;;;13.10;98.60;;;;;;5052638;28;20029;-70
2022/11/17 11:41:16;;;;;;;7.75;5.57;;;13.10;98.60;;;;;;5051442;28;20036;-71
2022/11/17 11:43:48;;;;;;;9.65;5.15;;;13.10;98.60;;;;;;5050553;28;20040;-71
2022/11/17 11:46:21;;;;;;;8.50;5.43;;;13.10;98.70;;;;;;5052541;28;20479;-71
2022/11/17 11:48:52;;;;;;;8.18;5.38;;;13.10;98.70;;;;;;5052377;28;20029;-70
2022/11/17 11:51:23;;;;;;;8.38;5.05;;;13.10;98.70;;;;;;5052479;28;20074;-71
2022/11/17 11:54:13;;;;;;;8.23;6.00;;;13.10;98.70;;;;;;5052349;28;20029;-71
2022/11/17 11:56:44;;;;;;;10.38;5.30;;;13.10;98.60;;;;;;5056279;28;20379;-70
2022/11/17 11:59:10;;;;;;;6.55;5.43;;;13.10;98.60;;;;;;5056116;28;20017;-71
2022/11/17 12:01:59;;;;;;;6.75;5.35;;;13.10;98.70;;;;;;5056140;28;20475;-71
2022/11/17 12:04:34;;;;;;;11.43;6.40;;;13.10;98.70;;;;;;5045494;28;20116;-71
2022/11/17 12:07:12;;;;;;;9.40;7.00;;;13.10;98.80;;;;;;5056154;28;20429;-71
2022/11/17 12:09:47;;;;;;;10.15;7.13;;;13.10;98.80;;;;;;5055839;28;20398;-70
2022/11/17 12:12:16;;;;;;;7.68;6.50;;;13.10;98.90;;;;;;5055987;28;20021;-71
2022/11/17 12:15:07;;;;;;;11.15;6.72;;;13.10;98.90;;;;;;5055969;28;20461;-71
2022/11/17 12:17:33;;;;;;;9.55;7.90;;;13.10;98.80;;;;;;5054546;28;20056;-71
2022/11/17 12:20:04;;;;;;;10.65;8.10;;;13.10;98.90;;;;;;5055602;28;20131;-70
2022/11/17 12:22:32;;;;;;;16.63;8.38;;;13.10;99.00;;;;;;5055478;28;20100;-70
2022/11/17 12:25:17;;;;;;;11.80;8.43;;;13.10;99.20;;;;;;5055696;28;20033;-71
2022/11/17 12:27:42;;;;;;;13.43;8.93;;;13.10;99.30;;;;;;5055711;28;20017;-70
2022/11/17 12:30:33;;;;;;;11.40;8.50;;;13.10;99.40;;;;;;5055599;28;20109;-70
2022/11/17 12:33:00;;;;;;;12.98;7.82;;;13.10;99.40;;;;;;5055493;28;20053;-70
2022/11/17 12:35:31;;;;;;;14.38;7.97;;;13.10;99.50;;;;;;5055400;28;20379;-70
2022/11/17 12:38:15;;;;;;;10.52;7.40;;;13.10;99.50;;;;;;5055260;28;20028;-72
2022/11/17 12:40:51;;;;;;;15.18;8.23;;;13.10;99.50;;;;;;5055566;28;20025;-70
2022/11/17 12:43:21;;;;;;;11.75;7.97;;;13.10;99.50;;;;;;5055245;28;20048;-69
2022/11/17 12:45:59;;;;;;;11.95;8.15;;;13.10;99.50;;;;;;5055116;28;20032;-72
2022/11/17 12:48:29;;;;;;;9.73;7.85;;;13.10;99.60;;;;;;5055054;28;20371;-71
2022/11/17 12:51:10;;;;;;;12.30;9.32;;;13.10;99.60;;;;;;5055159;28;20024;-71
2022/11/17 12:53:50;;;;;;;11.95;8.65;;;13.10;99.60;;;;;;5055032;28;20033;-71
2022/11/17 12:56:22;;;;;;;12.32;8.35;;;13.10;99.70;;;;;;5055127;28;20021;-71
2022/11/17 12:58:48;;;;;;;12.10;8.47;;;13.10;99.70;;;;;;5055128;28;20028;-71
2022/11/17 13:01:42;;;;;;;9.93;8.10;;;13.10;99.70;;;;;;5055081;28;20021;-71
2022/11/17 13:04:15;;;;;;;9.10;7.93;;;13.10;99.70;;;;;;5054915;28;20021;-71
2022/11/17 13:06:59;;;;;;;11.75;8.02;;;13.10;99.70;;;;;;5054586;28;20119;-70
2022/11/17 13:09:32;;;;;;;12.93;8.70;;;13.10;99.90;;;;;;5054649;28;20144;-71
2022/11/17 13:12:09;;;;;;;16.30;8.07;;;13.10;99.70;;;;;;5054857;28;20399;-71
2022/11/17 13:15:01;;;;;;;10.30;8.05;;;13.10;99.60;;;;;;5054631;28;20413;-71
2022/11/17 13:17:33;;;;;;;22.25;9.10;;;13.10;99.60;;;;;;5054586;28;20024;-71
2022/11/17 13:19:59;;;;;;;16.77;9.60;;;13.10;99.60;;;;;;5054372;28;20415;-72
2022/11/17 13:22:25;;;;;;;14.93;8.85;;;13.10;99.60;;;;;;5054369;28;20027;-71
2022/11/17 13:24:52;;;;;;;10.15;8.38;;;13.10;99.60;;;;;;5054539;28;20093;-74
2022/11/17 13:27:30;;;;;;;12.05;9.27;;;13.10;99.60;;;;;;5054643;28;20386;-71
2022/11/17 13:30:22;;;;;;;10.30;8.55;;;13.10;99.60;;;;;;5054486;28;20036;-70
2022/11/17 13:32:49;;;;;;;13.00;8.15;;;13.10;99.60;;;;;;5051013;28;20068;-70
2022/11/17 13:35:19;;;;;;;14.50;9.30;;;13.10;99.60;;;;;;5054033;28;20029;-71
2022/11/17 13:37:45;;;;;;;13.82;9.50;;;13.10;99.60;;;;;;5054246;28;20020;-71
2022/11/17 13:40:20;;;;;;;14.18;9.75;;;13.10;99.70;;;;;;5054359;28;20036;-71
2022/11/17 13:42:46;;;;;;;11.93;9.10;;;13.10;99.60;;;;;;5054209;28;20027;-71
2022/11/17 13:45:15;;;;;;;13.60;9.63;;;13.10;99.60;;;;;;5053841;28;20017;-71
2022/11/17 13:47:47;;;;;;;12.68;9.10;;;13.10;99.70;;;;;;5053823;28;20504;-71
2022/11/17 13:50:25;;;;;;;13.98;9.73;;;13.10;99.70;;;;;;5054026;28;20040;-71
2022/11/17 13:53:09;;;;;;;12.30;8.82;;;13.10;99.80;;;;;;5053701;28;20526;-71
2022/11/17 13:55:35;;;;;;;12.75;9.52;;;13.10;99.70;;;;;;5053558;28;20406;-71
2022/11/17 13:58:21;;;;;;;11.60;9.40;;;13.10;99.70;;;;;;5053691;28;20025;-71
2022/11/17 14:00:52;;;;;;;12.95;9.60;;;13.10;99.80;;;;;;5053647;28;20028;-71
2022/11/17 14:03:32;;;;;;;17.80;11.25;;;13.10;99.80;;;;;;5053623;28;20116;-72
2022/11/17 14:05:58;;;;;;;14.57;11.18;;;13.20;99.90;;;;;;5053772;28;20029;-71
2022/11/17 14:08:28;;;;;;;14.43;11.38;;;13.10;99.90;;;;;;5053579;28;20039;-70
2022/11/17 14:11:24;;;;;;;19.90;12.98;;;13.10;99.90;;;;;;5053412;28;20082;-71
2022/11/17 14:13:57;;;;;;;20.58;13.10;;;13.10;99.90;;;;;;5044886;28;20037;-71
2022/11/17 14:16:36;;;;;;;17.63;11.85;;;13.20;99.90;;;;;;5053275;28;20407;-70
2022/11/17 14:19:31;;;;;;;17.27;11.90;;;13.10;99.90;;;;;;5052749;28;20443;-70
2022/11/17 14:22:02;;;;;;;16.58;12.07;;;13.10;99.90;;;;;;5053565;28;20029;-71